sensor_id;sensor_type;location;lat;lon;timestamp;P1;durP1;ratioP1;P2;durP2;ratioP2
56173;SDS011;42058;52.308;20.924;2023-12-28T00:00:01;35.80;;;12.70;;
56173;SDS011;42058;52.308;20.924;2023-12-28T00:02:29;36.30;;;13.90;;
56173;SDS011;42058;52.308;20.924;2023-12-28T00:04:55;47.30;;;15.70;;
56173;SDS011;42058;52.308;20.924;2023-12-28T00:07:21;34.90;;;13.90;;
56173;SDS011;42058;52.308;20.924;2023-12-28T00:09:47;34.90;;;13.70;;
56173;SDS011;42058;52.308;20.924;2023-12-28T00:12:14;29.80;;;12.90;;
56173;SDS011;42058;52.308;20.924;2023-12-28T00:14:40;38.00;;;13.40;;
56173;SDS011;42058;52.308;20.924;2023-12-28T00:17:07;33.80;;;13.90;;
56173;SDS011;42058;52.308;20.924;2023-12-28T00:19:33;30.50;;;12.60;;
56173;SDS011;42058;52.308;20.924;2023-12-28T00:21:59;36.90;;;13.60;;
56173;SDS011;42058;52.308;20.924;2023-12-28T00:24:26;34.90;;;14.10;;
56173;SDS011;42058;52.308;20.924;2023-12-28T00:26:52;36.40;;;13.40;;
56173;SDS011;42058;52.308;20.924;2023-12-28T00:29:36;31.50;;;13.60;;
56173;SDS011;42058;52.308;20.924;2023-12-28T00:32:05;30.70;;;13.60;;
56173;SDS011;42058;52.308;20.924;2023-12-28T00:34:32;34.10;;;14.40;;
56173;SDS011;42058;52.308;20.924;2023-12-28T00:36:58;30.70;;;12.50;;
56173;SDS011;42058;52.308;20.924;2023-12-28T00:39:24;37.20;;;13.70;;
56173;SDS011;42058;52.308;20.924;2023-12-28T00:41:51;37.70;;;14.70;;
56173;SDS011;42058;52.308;20.924;2023-12-28T00:44:17;38.10;;;15.50;;
56173;SDS011;42058;52.308;20.924;2023-12-28T00:46:43;36.20;;;15.00;;
56173;SDS011;42058;52.308;20.924;2023-12-28T00:49:09;42.20;;;16.10;;
56173;SDS011;42058;52.308;20.924;2023-12-28T00:51:36;37.00;;;14.40;;
56173;SDS011;42058;52.308;20.924;2023-12-28T00:54:02;36.10;;;14.60;;
56173;SDS011;42058;52.308;20.924;2023-12-28T00:56:29;34.80;;;15.30;;
56173;SDS011;42058;52.308;20.924;2023-12-28T00:58:55;36.30;;;14.40;;
56173;SDS011;42058;52.308;20.924;2023-12-28T01:01:21;34.00;;;14.90;;
56173;SDS011;42058;52.308;20.924;2023-12-28T01:03:48;33.40;;;14.00;;
56173;SDS011;42058;52.308;20.924;2023-12-28T01:06:14;39.90;;;14.40;;
56173;SDS011;42058;52.308;20.924;2023-12-28T01:08:41;35.80;;;13.70;;
56173;SDS011;42058;52.308;20.924;2023-12-28T01:11:07;37.40;;;14.90;;
56173;SDS011;42058;52.308;20.924;2023-12-28T01:13:34;36.70;;;14.90;;
56173;SDS011;42058;52.308;20.924;2023-12-28T01:16:03;37.20;;;15.60;;
56173;SDS011;42058;52.308;20.924;2023-12-28T01:18:30;43.10;;;16.00;;
56173;SDS011;42058;52.308;20.924;2023-12-28T01:20:56;36.70;;;14.40;;
56173;SDS011;42058;52.308;20.924;2023-12-28T01:23:22;38.90;;;13.90;;
56173;SDS011;42058;52.308;20.924;2023-12-28T01:25:49;34.20;;;12.90;;
56173;SDS011;42058;52.308;20.924;2023-12-28T01:28:15;32.10;;;13.30;;
56173;SDS011;42058;52.308;20.924;2023-12-28T01:30:41;37.70;;;14.40;;
56173;SDS011;42058;52.308;20.924;2023-12-28T01:33:10;35.70;;;15.00;;
56173;SDS011;42058;52.308;20.924;2023-12-28T01:35:37;40.60;;;14.70;;
56173;SDS011;42058;52.308;20.924;2023-12-28T01:38:04;35.80;;;15.00;;
56173;SDS011;42058;52.308;20.924;2023-12-28T01:40:31;30.50;;;13.30;;
56173;SDS011;42058;52.308;20.924;2023-12-28T01:42:57;38.30;;;14.40;;
56173;SDS011;42058;52.308;20.924;2023-12-28T01:45:23;31.20;;;13.40;;
56173;SDS011;42058;52.308;20.924;2023-12-28T01:47:50;33.60;;;12.80;;
56173;SDS011;42058;52.308;20.924;2023-12-28T01:50:18;34.80;;;12.60;;
56173;SDS011;42058;52.308;20.924;2023-12-28T01:52:46;37.50;;;13.20;;
56173;SDS011;42058;52.308;20.924;2023-12-28T01:55:13;28.80;;;11.90;;
56173;SDS011;42058;52.308;20.924;2023-12-28T01:57:40;35.10;;;12.90;;
56173;SDS011;42058;52.308;20.924;2023-12-28T02:00:07;26.90;;;12.50;;
56173;SDS011;42058;52.308;20.924;2023-12-28T02:02:34;30.90;;;12.00;;
56173;SDS011;42058;52.308;20.924;2023-12-28T02:05:00;31.50;;;11.80;;
56173;SDS011;42058;52.308;20.924;2023-12-28T02:07:27;32.60;;;12.20;;
56173;SDS011;42058;52.308;20.924;2023-12-28T02:09:55;28.90;;;11.40;;
56173;SDS011;42058;52.308;20.924;2023-12-28T02:12:21;31.90;;;11.50;;
56173;SDS011;42058;52.308;20.924;2023-12-28T02:14:48;26.20;;;10.90;;
56173;SDS011;42058;52.308;20.924;2023-12-28T02:20:10;34.60;;;12.20;;
56173;SDS011;42058;52.308;20.924;2023-12-28T02:22:37;29.30;;;11.10;;
56173;SDS011;42058;52.308;20.924;2023-12-28T02:27:37;37.70;;;14.70;;
56173;SDS011;42058;52.308;20.924;2023-12-28T02:30:08;42.60;;;15.10;;
56173;SDS011;42058;52.308;20.924;2023-12-28T02:38:09;31.50;;;14.40;;
56173;SDS011;42058;52.308;20.924;2023-12-28T02:40:38;36.60;;;13.80;;
56173;SDS011;42058;52.308;20.924;2023-12-28T02:43:06;33.00;;;14.40;;
56173;SDS011;42058;52.308;20.924;2023-12-28T02:45:33;33.10;;;12.90;;
56173;SDS011;42058;52.308;20.924;2023-12-28T02:48:01;26.90;;;12.00;;
56173;SDS011;42058;52.308;20.924;2023-12-28T02:50:28;25.70;;;10.20;;
56173;SDS011;42058;52.308;20.924;2023-12-28T02:52:58;33.00;;;11.80;;
56173;SDS011;42058;52.308;20.924;2023-12-28T02:55:24;25.10;;;10.10;;
56173;SDS011;42058;52.308;20.924;2023-12-28T02:57:53;25.50;;;9.60;;
56173;SDS011;42058;52.308;20.924;2023-12-28T03:00:28;27.20;;;8.80;;
56173;SDS011;42058;52.308;20.924;2023-12-28T03:02:54;18.80;;;7.70;;
56173;SDS011;42058;52.308;20.924;2023-12-28T03:05:20;25.40;;;8.00;;
56173;SDS011;42058;52.308;20.924;2023-12-28T03:07:47;21.60;;;8.00;;
56173;SDS011;42058;52.308;20.924;2023-12-28T03:10:13;20.30;;;6.90;;
56173;SDS011;42058;52.308;20.924;2023-12-28T03:12:40;17.70;;;7.80;;
56173;SDS011;42058;52.308;20.924;2023-12-28T03:15:07;20.80;;;6.90;;
56173;SDS011;42058;52.308;20.924;2023-12-28T03:17:34;20.00;;;6.70;;
56173;SDS011;42058;52.308;20.924;2023-12-28T03:20:02;18.20;;;7.50;;
56173;SDS011;42058;52.308;20.924;2023-12-28T03:22:29;23.70;;;7.60;;
56173;SDS011;42058;52.308;20.924;2023-12-28T03:24:56;16.00;;;6.20;;
56173;SDS011;42058;52.308;20.924;2023-12-28T03:27:22;25.90;;;7.90;;
56173;SDS011;42058;52.308;20.924;2023-12-28T03:29:48;19.40;;;7.20;;
56173;SDS011;42058;52.308;20.924;2023-12-28T03:32:15;24.30;;;7.20;;
56173;SDS011;42058;52.308;20.924;2023-12-28T03:34:41;22.00;;;6.50;;
56173;SDS011;42058;52.308;20.924;2023-12-28T03:37:08;20.40;;;6.30;;
56173;SDS011;42058;52.308;20.924;2023-12-28T03:39:36;17.90;;;6.10;;
56173;SDS011;42058;52.308;20.924;2023-12-28T03:42:02;14.80;;;6.10;;
56173;SDS011;42058;52.308;20.924;2023-12-28T03:44:28;20.40;;;7.40;;
56173;SDS011;42058;52.308;20.924;2023-12-28T03:46:55;17.40;;;6.30;;
56173;SDS011;42058;52.308;20.924;2023-12-28T03:49:22;18.80;;;6.60;;
56173;SDS011;42058;52.308;20.924;2023-12-28T03:51:49;11.80;;;5.70;;
56173;SDS011;42058;52.308;20.924;2023-12-28T03:54:16;14.00;;;6.30;;
56173;SDS011;42058;52.308;20.924;2023-12-28T03:56:43;21.20;;;5.80;;
56173;SDS011;42058;52.308;20.924;2023-12-28T03:59:10;18.70;;;6.80;;
56173;SDS011;42058;52.308;20.924;2023-12-28T04:01:36;18.10;;;6.50;;
56173;SDS011;42058;52.308;20.924;2023-12-28T04:04:02;16.60;;;6.10;;
56173;SDS011;42058;52.308;20.924;2023-12-28T04:06:29;15.00;;;6.20;;
56173;SDS011;42058;52.308;20.924;2023-12-28T04:08:56;15.80;;;6.20;;
56173;SDS011;42058;52.308;20.924;2023-12-28T04:11:22;19.00;;;6.60;;
56173;SDS011;42058;52.308;20.924;2023-12-28T04:13:49;17.70;;;6.60;;
56173;SDS011;42058;52.308;20.924;2023-12-28T04:16:16;13.10;;;5.80;;
56173;SDS011;42058;52.308;20.924;2023-12-28T04:18:42;17.00;;;6.40;;
56173;SDS011;42058;52.308;20.924;2023-12-28T04:21:10;18.90;;;6.00;;
56173;SDS011;42058;52.308;20.924;2023-12-28T04:23:38;15.60;;;5.70;;
56173;SDS011;42058;52.308;20.924;2023-12-28T04:26:05;18.40;;;6.60;;
56173;SDS011;42058;52.308;20.924;2023-12-28T04:28:32;19.80;;;6.80;;
56173;SDS011;42058;52.308;20.924;2023-12-28T04:31:04;20.60;;;6.80;;
56173;SDS011;42058;52.308;20.924;2023-12-28T04:33:31;19.30;;;6.40;;
56173;SDS011;42058;52.308;20.924;2023-12-28T04:36:03;20.10;;;6.90;;
56173;SDS011;42058;52.308;20.924;2023-12-28T04:38:31;16.50;;;6.30;;
56173;SDS011;42058;52.308;20.924;2023-12-28T04:40:58;18.50;;;7.50;;
56173;SDS011;42058;52.308;20.924;2023-12-28T04:43:25;15.60;;;5.70;;
56173;SDS011;42058;52.308;20.924;2023-12-28T04:45:51;14.60;;;6.00;;
56173;SDS011;42058;52.308;20.924;2023-12-28T04:48:18;20.60;;;6.70;;
56173;SDS011;42058;52.308;20.924;2023-12-28T04:50:50;20.00;;;7.50;;
56173;SDS011;42058;52.308;20.924;2023-12-28T04:53:16;22.10;;;7.20;;
56173;SDS011;42058;52.308;20.924;2023-12-28T04:55:43;17.40;;;6.30;;
56173;SDS011;42058;52.308;20.924;2023-12-28T04:58:10;21.90;;;6.90;;
56173;SDS011;42058;52.308;20.924;2023-12-28T05:00:38;19.20;;;7.00;;
56173;SDS011;42058;52.308;20.924;2023-12-28T05:03:04;21.40;;;8.00;;
56173;SDS011;42058;52.308;20.924;2023-12-28T05:05:31;20.40;;;7.50;;
56173;SDS011;42058;52.308;20.924;2023-12-28T05:07:58;22.50;;;7.10;;
56173;SDS011;42058;52.308;20.924;2023-12-28T05:10:24;19.20;;;7.40;;
56173;SDS011;42058;52.308;20.924;2023-12-28T05:12:51;16.20;;;6.80;;
56173;SDS011;42058;52.308;20.924;2023-12-28T05:15:17;24.30;;;8.60;;
56173;SDS011;42058;52.308;20.924;2023-12-28T05:17:45;17.70;;;7.60;;
56173;SDS011;42058;52.308;20.924;2023-12-28T05:20:12;23.40;;;8.10;;
56173;SDS011;42058;52.308;20.924;2023-12-28T05:22:38;20.20;;;7.70;;
56173;SDS011;42058;52.308;20.924;2023-12-28T05:25:05;21.90;;;8.00;;
56173;SDS011;42058;52.308;20.924;2023-12-28T05:27:31;19.30;;;8.20;;
56173;SDS011;42058;52.308;20.924;2023-12-28T05:29:58;17.70;;;7.00;;
56173;SDS011;42058;52.308;20.924;2023-12-28T05:32:24;18.70;;;7.20;;
56173;SDS011;42058;52.308;20.924;2023-12-28T05:34:50;22.90;;;7.30;;
56173;SDS011;42058;52.308;20.924;2023-12-28T05:37:17;18.60;;;6.60;;
56173;SDS011;42058;52.308;20.924;2023-12-28T05:39:43;16.60;;;7.50;;
56173;SDS011;42058;52.308;20.924;2023-12-28T05:42:09;21.60;;;7.40;;
56173;SDS011;42058;52.308;20.924;2023-12-28T05:44:36;22.10;;;8.10;;
56173;SDS011;42058;52.308;20.924;2023-12-28T05:47:02;26.10;;;7.80;;
56173;SDS011;42058;52.308;20.924;2023-12-28T05:49:29;17.80;;;6.90;;
56173;SDS011;42058;52.308;20.924;2023-12-28T05:51:56;20.00;;;7.90;;
56173;SDS011;42058;52.308;20.924;2023-12-28T05:54:23;21.80;;;8.00;;
56173;SDS011;42058;52.308;20.924;2023-12-28T05:56:49;23.50;;;8.80;;
56173;SDS011;42058;52.308;20.924;2023-12-28T05:59:15;19.50;;;7.30;;
56173;SDS011;42058;52.308;20.924;2023-12-28T06:01:44;23.20;;;8.10;;
56173;SDS011;42058;52.308;20.924;2023-12-28T06:04:11;18.50;;;6.80;;
56173;SDS011;42058;52.308;20.924;2023-12-28T06:06:38;19.90;;;7.80;;
56173;SDS011;42058;52.308;20.924;2023-12-28T06:09:05;20.30;;;7.90;;
56173;SDS011;42058;52.308;20.924;2023-12-28T06:11:31;18.70;;;7.30;;
56173;SDS011;42058;52.308;20.924;2023-12-28T06:13:57;20.70;;;7.00;;
56173;SDS011;42058;52.308;20.924;2023-12-28T06:16:23;24.90;;;8.50;;
56173;SDS011;42058;52.308;20.924;2023-12-28T06:18:51;19.20;;;7.50;;
56173;SDS011;42058;52.308;20.924;2023-12-28T06:21:18;19.10;;;7.00;;
56173;SDS011;42058;52.308;20.924;2023-12-28T06:23:44;16.30;;;6.10;;
56173;SDS011;42058;52.308;20.924;2023-12-28T06:26:10;20.00;;;7.40;;
56173;SDS011;42058;52.308;20.924;2023-12-28T06:28:36;19.10;;;7.40;;
56173;SDS011;42058;52.308;20.924;2023-12-28T06:31:03;22.40;;;7.40;;
56173;SDS011;42058;52.308;20.924;2023-12-28T06:33:30;15.60;;;6.40;;
56173;SDS011;42058;52.308;20.924;2023-12-28T06:35:57;19.30;;;8.00;;
56173;SDS011;42058;52.308;20.924;2023-12-28T06:38:26;22.60;;;7.70;;
56173;SDS011;42058;52.308;20.924;2023-12-28T06:40:53;24.20;;;8.50;;
56173;SDS011;42058;52.308;20.924;2023-12-28T06:43:19;17.00;;;7.10;;
56173;SDS011;42058;52.308;20.924;2023-12-28T06:45:45;17.10;;;7.40;;
56173;SDS011;42058;52.308;20.924;2023-12-28T06:48:12;17.20;;;7.10;;
56173;SDS011;42058;52.308;20.924;2023-12-28T06:50:38;24.10;;;7.90;;
56173;SDS011;42058;52.308;20.924;2023-12-28T06:53:04;20.90;;;9.30;;
56173;SDS011;42058;52.308;20.924;2023-12-28T06:55:30;20.80;;;8.40;;
56173;SDS011;42058;52.308;20.924;2023-12-28T06:57:57;20.10;;;7.80;;
56173;SDS011;42058;52.308;20.924;2023-12-28T07:00:24;22.80;;;8.80;;
56173;SDS011;42058;52.308;20.924;2023-12-28T07:02:50;22.60;;;9.10;;
56173;SDS011;42058;52.308;20.924;2023-12-28T07:05:16;20.30;;;8.30;;
56173;SDS011;42058;52.308;20.924;2023-12-28T07:07:43;18.10;;;7.00;;
56173;SDS011;42058;52.308;20.924;2023-12-28T07:10:09;22.80;;;8.20;;
56173;SDS011;42058;52.308;20.924;2023-12-28T07:12:35;26.20;;;8.20;;
56173;SDS011;42058;52.308;20.924;2023-12-28T07:15:01;16.40;;;7.90;;
56173;SDS011;42058;52.308;20.924;2023-12-28T07:17:28;22.80;;;8.70;;
56173;SDS011;42058;52.308;20.924;2023-12-28T07:19:54;23.00;;;7.40;;
56173;SDS011;42058;52.308;20.924;2023-12-28T07:22:20;23.30;;;7.90;;
56173;SDS011;42058;52.308;20.924;2023-12-28T07:24:47;21.60;;;7.70;;
56173;SDS011;42058;52.308;20.924;2023-12-28T07:27:13;23.60;;;8.90;;
56173;SDS011;42058;52.308;20.924;2023-12-28T07:29:39;22.20;;;8.90;;
56173;SDS011;42058;52.308;20.924;2023-12-28T07:32:06;18.80;;;7.60;;
56173;SDS011;42058;52.308;20.924;2023-12-28T07:34:34;20.80;;;8.30;;
56173;SDS011;42058;52.308;20.924;2023-12-28T07:37:00;25.10;;;9.30;;
56173;SDS011;42058;52.308;20.924;2023-12-28T07:39:27;21.90;;;9.40;;
56173;SDS011;42058;52.308;20.924;2023-12-28T07:41:53;21.70;;;7.90;;
56173;SDS011;42058;52.308;20.924;2023-12-28T07:44:19;19.20;;;9.20;;
56173;SDS011;42058;52.308;20.924;2023-12-28T07:46:46;21.60;;;9.00;;
56173;SDS011;42058;52.308;20.924;2023-12-28T07:49:12;21.20;;;9.70;;
56173;SDS011;42058;52.308;20.924;2023-12-28T07:51:38;22.40;;;9.20;;
56173;SDS011;42058;52.308;20.924;2023-12-28T07:54:05;18.70;;;9.00;;
56173;SDS011;42058;52.308;20.924;2023-12-28T07:56:31;17.10;;;7.20;;
56173;SDS011;42058;52.308;20.924;2023-12-28T07:58:57;21.60;;;8.70;;
56173;SDS011;42058;52.308;20.924;2023-12-28T08:01:24;23.60;;;9.00;;
56173;SDS011;42058;52.308;20.924;2023-12-28T08:03:51;22.30;;;9.20;;
56173;SDS011;42058;52.308;20.924;2023-12-28T08:06:17;25.50;;;9.20;;
56173;SDS011;42058;52.308;20.924;2023-12-28T08:08:44;21.40;;;9.90;;
56173;SDS011;42058;52.308;20.924;2023-12-28T08:11:10;22.70;;;8.70;;
56173;SDS011;42058;52.308;20.924;2023-12-28T08:13:38;24.40;;;9.80;;
56173;SDS011;42058;52.308;20.924;2023-12-28T08:16:04;23.20;;;8.50;;
56173;SDS011;42058;52.308;20.924;2023-12-28T08:18:31;21.30;;;9.90;;
56173;SDS011;42058;52.308;20.924;2023-12-28T08:20:57;22.70;;;9.40;;
56173;SDS011;42058;52.308;20.924;2023-12-28T08:23:25;21.60;;;8.90;;
56173;SDS011;42058;52.308;20.924;2023-12-28T08:25:51;21.90;;;9.20;;
56173;SDS011;42058;52.308;20.924;2023-12-28T08:28:17;22.30;;;9.10;;
56173;SDS011;42058;52.308;20.924;2023-12-28T08:30:44;18.80;;;8.60;;
56173;SDS011;42058;52.308;20.924;2023-12-28T08:33:10;19.50;;;8.20;;
56173;SDS011;42058;52.308;20.924;2023-12-28T08:35:36;20.90;;;9.00;;
56173;SDS011;42058;52.308;20.924;2023-12-28T08:38:03;22.30;;;9.60;;
56173;SDS011;42058;52.308;20.924;2023-12-28T08:40:30;21.10;;;9.30;;
56173;SDS011;42058;52.308;20.924;2023-12-28T08:42:56;26.20;;;9.50;;
56173;SDS011;42058;52.308;20.924;2023-12-28T08:45:22;30.50;;;9.70;;
56173;SDS011;42058;52.308;20.924;2023-12-28T08:47:49;22.20;;;8.70;;
56173;SDS011;42058;52.308;20.924;2023-12-28T08:50:15;25.30;;;9.40;;
56173;SDS011;42058;52.308;20.924;2023-12-28T08:52:42;21.00;;;9.20;;
56173;SDS011;42058;52.308;20.924;2023-12-28T08:55:08;19.40;;;8.80;;
56173;SDS011;42058;52.308;20.924;2023-12-28T08:57:35;23.00;;;9.10;;
56173;SDS011;42058;52.308;20.924;2023-12-28T09:00:09;19.00;;;8.50;;
56173;SDS011;42058;52.308;20.924;2023-12-28T09:02:36;21.90;;;9.20;;
56173;SDS011;42058;52.308;20.924;2023-12-28T09:05:03;22.50;;;8.80;;
56173;SDS011;42058;52.308;20.924;2023-12-28T09:07:30;24.30;;;9.00;;
56173;SDS011;42058;52.308;20.924;2023-12-28T09:09:56;19.90;;;8.50;;
56173;SDS011;42058;52.308;20.924;2023-12-28T09:12:23;21.00;;;8.60;;
56173;SDS011;42058;52.308;20.924;2023-12-28T09:14:49;18.00;;;7.80;;
56173;SDS011;42058;52.308;20.924;2023-12-28T09:17:21;19.40;;;8.00;;
56173;SDS011;42058;52.308;20.924;2023-12-28T09:19:48;19.30;;;8.10;;
56173;SDS011;42058;52.308;20.924;2023-12-28T09:22:15;17.30;;;9.10;;
56173;SDS011;42058;52.308;20.924;2023-12-28T09:24:41;18.00;;;7.60;;
56173;SDS011;42058;52.308;20.924;2023-12-28T09:27:07;19.90;;;7.70;;
56173;SDS011;42058;52.308;20.924;2023-12-28T09:29:34;18.40;;;7.50;;
56173;SDS011;42058;52.308;20.924;2023-12-28T09:32:01;15.80;;;8.00;;
56173;SDS011;42058;52.308;20.924;2023-12-28T09:34:27;16.90;;;8.10;;
56173;SDS011;42058;52.308;20.924;2023-12-28T09:36:54;16.90;;;7.70;;
56173;SDS011;42058;52.308;20.924;2023-12-28T09:39:20;14.60;;;7.00;;
56173;SDS011;42058;52.308;20.924;2023-12-28T09:41:49;15.30;;;7.50;;
56173;SDS011;42058;52.308;20.924;2023-12-28T09:44:21;16.40;;;7.80;;
56173;SDS011;42058;52.308;20.924;2023-12-28T09:46:48;16.00;;;7.60;;
56173;SDS011;42058;52.308;20.924;2023-12-28T09:49:15;17.60;;;6.90;;
56173;SDS011;42058;52.308;20.924;2023-12-28T09:51:41;20.60;;;8.20;;
56173;SDS011;42058;52.308;20.924;2023-12-28T09:54:08;14.80;;;7.70;;
56173;SDS011;42058;52.308;20.924;2023-12-28T09:56:34;20.20;;;8.40;;
56173;SDS011;42058;52.308;20.924;2023-12-28T09:59:01;22.10;;;8.50;;
56173;SDS011;42058;52.308;20.924;2023-12-28T10:01:29;17.60;;;8.10;;
56173;SDS011;42058;52.308;20.924;2023-12-28T10:03:56;16.70;;;7.80;;
56173;SDS011;42058;52.308;20.924;2023-12-28T10:06:22;13.80;;;6.80;;
56173;SDS011;42058;52.308;20.924;2023-12-28T10:08:49;16.30;;;7.80;;
56173;SDS011;42058;52.308;20.924;2023-12-28T10:11:17;15.60;;;7.20;;
56173;SDS011;42058;52.308;20.924;2023-12-28T10:13:44;15.20;;;7.30;;
56173;SDS011;42058;52.308;20.924;2023-12-28T10:16:11;18.10;;;8.70;;
56173;SDS011;42058;52.308;20.924;2023-12-28T10:18:44;16.20;;;7.50;;
56173;SDS011;42058;52.308;20.924;2023-12-28T10:21:11;14.10;;;6.90;;
56173;SDS011;42058;52.308;20.924;2023-12-28T10:23:38;14.30;;;7.20;;
56173;SDS011;42058;52.308;20.924;2023-12-28T10:26:04;17.10;;;6.80;;
56173;SDS011;42058;52.308;20.924;2023-12-28T10:28:32;15.90;;;7.80;;
56173;SDS011;42058;52.308;20.924;2023-12-28T10:31:00;20.70;;;7.90;;
56173;SDS011;42058;52.308;20.924;2023-12-28T10:33:27;15.00;;;7.80;;
56173;SDS011;42058;52.308;20.924;2023-12-28T10:35:54;17.50;;;8.20;;
56173;SDS011;42058;52.308;20.924;2023-12-28T10:38:24;15.50;;;7.80;;
56173;SDS011;42058;52.308;20.924;2023-12-28T10:40:54;15.00;;;7.80;;
56173;SDS011;42058;52.308;20.924;2023-12-28T10:43:21;15.80;;;7.40;;
56173;SDS011;42058;52.308;20.924;2023-12-28T10:45:50;15.10;;;8.30;;
56173;SDS011;42058;52.308;20.924;2023-12-28T10:48:21;15.60;;;7.50;;
56173;SDS011;42058;52.308;20.924;2023-12-28T10:50:57;15.30;;;7.50;;
56173;SDS011;42058;52.308;20.924;2023-12-28T10:58:49;19.10;;;7.70;;
56173;SDS011;42058;52.308;20.924;2023-12-28T11:01:17;15.80;;;7.50;;
56173;SDS011;42058;52.308;20.924;2023-12-28T11:03:56;14.50;;;7.00;;
56173;SDS011;42058;52.308;20.924;2023-12-28T11:06:30;15.90;;;6.70;;
56173;SDS011;42058;52.308;20.924;2023-12-28T11:08:58;15.70;;;7.10;;
56173;SDS011;42058;52.308;20.924;2023-12-28T11:11:25;13.10;;;6.70;;
56173;SDS011;42058;52.308;20.924;2023-12-28T11:13:53;13.60;;;6.90;;
56173;SDS011;42058;52.308;20.924;2023-12-28T11:16:22;12.80;;;6.10;;
56173;SDS011;42058;52.308;20.924;2023-12-28T11:18:49;14.10;;;6.70;;
56173;SDS011;42058;52.308;20.924;2023-12-28T11:21:17;9.70;;;5.50;;
56173;SDS011;42058;52.308;20.924;2023-12-28T11:23:44;13.80;;;6.20;;
56173;SDS011;42058;52.308;20.924;2023-12-28T11:26:19;10.70;;;5.70;;
56173;SDS011;42058;52.308;20.924;2023-12-28T11:28:46;13.40;;;6.30;;
56173;SDS011;42058;52.308;20.924;2023-12-28T11:31:14;11.40;;;6.00;;
56173;SDS011;42058;52.308;20.924;2023-12-28T11:33:47;15.60;;;5.70;;
56173;SDS011;42058;52.308;20.924;2023-12-28T11:36:22;14.00;;;6.10;;
56173;SDS011;42058;52.308;20.924;2023-12-28T11:38:53;10.40;;;5.30;;
56173;SDS011;42058;52.308;20.924;2023-12-28T11:41:24;12.00;;;6.30;;
56173;SDS011;42058;52.308;20.924;2023-12-28T11:43:53;9.50;;;5.50;;
56173;SDS011;42058;52.308;20.924;2023-12-28T11:46:22;9.10;;;4.70;;
56173;SDS011;42058;52.308;20.924;2023-12-28T11:48:48;13.50;;;5.70;;
56173;SDS011;42058;52.308;20.924;2023-12-28T11:51:15;9.10;;;5.20;;
56173;SDS011;42058;52.308;20.924;2023-12-28T11:53:43;10.70;;;5.00;;
56173;SDS011;42058;52.308;20.924;2023-12-28T11:56:12;13.10;;;5.40;;
56173;SDS011;42058;52.308;20.924;2023-12-28T11:58:41;15.90;;;5.30;;
56173;SDS011;42058;52.308;20.924;2023-12-28T12:01:11;13.40;;;4.90;;
56173;SDS011;42058;52.308;20.924;2023-12-28T12:03:38;10.50;;;5.00;;
56173;SDS011;42058;52.308;20.924;2023-12-28T12:06:04;12.20;;;5.80;;
56173;SDS011;42058;52.308;20.924;2023-12-28T12:08:31;10.00;;;5.00;;
56173;SDS011;42058;52.308;20.924;2023-12-28T12:11:01;9.30;;;5.00;;
56173;SDS011;42058;52.308;20.924;2023-12-28T12:13:31;11.30;;;5.40;;
56173;SDS011;42058;52.308;20.924;2023-12-28T12:15:58;14.00;;;5.30;;
56173;SDS011;42058;52.308;20.924;2023-12-28T12:18:25;13.20;;;5.20;;
56173;SDS011;42058;52.308;20.924;2023-12-28T12:20:52;10.70;;;5.50;;
56173;SDS011;42058;52.308;20.924;2023-12-28T12:23:18;12.10;;;5.80;;
56173;SDS011;42058;52.308;20.924;2023-12-28T12:25:45;10.00;;;5.10;;
56173;SDS011;42058;52.308;20.924;2023-12-28T12:28:11;9.50;;;5.00;;
56173;SDS011;42058;52.308;20.924;2023-12-28T12:30:37;12.90;;;5.80;;
56173;SDS011;42058;52.308;20.924;2023-12-28T12:33:04;15.40;;;5.90;;
56173;SDS011;42058;52.308;20.924;2023-12-28T12:35:31;13.90;;;5.50;;
56173;SDS011;42058;52.308;20.924;2023-12-28T12:37:58;13.40;;;5.70;;
56173;SDS011;42058;52.308;20.924;2023-12-28T12:40:24;15.10;;;6.70;;
56173;SDS011;42058;52.308;20.924;2023-12-28T12:42:52;15.30;;;6.40;;
56173;SDS011;42058;52.308;20.924;2023-12-28T12:45:21;10.00;;;5.30;;
56173;SDS011;42058;52.308;20.924;2023-12-28T12:47:48;12.60;;;6.20;;
56173;SDS011;42058;52.308;20.924;2023-12-28T12:50:15;10.70;;;5.30;;
56173;SDS011;42058;52.308;20.924;2023-12-28T12:52:41;11.50;;;5.40;;
56173;SDS011;42058;52.308;20.924;2023-12-28T12:55:12;14.20;;;7.40;;
56173;SDS011;42058;52.308;20.924;2023-12-28T12:57:39;10.70;;;5.50;;
56173;SDS011;42058;52.308;20.924;2023-12-28T13:00:06;11.60;;;5.30;;
56173;SDS011;42058;52.308;20.924;2023-12-28T13:02:35;10.80;;;5.80;;
56173;SDS011;42058;52.308;20.924;2023-12-28T13:05:03;10.90;;;5.70;;
56173;SDS011;42058;52.308;20.924;2023-12-28T13:07:33;12.70;;;5.70;;
56173;SDS011;42058;52.308;20.924;2023-12-28T13:09:59;9.70;;;5.20;;
56173;SDS011;42058;52.308;20.924;2023-12-28T13:12:26;10.00;;;4.90;;
56173;SDS011;42058;52.308;20.924;2023-12-28T13:14:52;10.70;;;5.00;;
56173;SDS011;42058;52.308;20.924;2023-12-28T13:17:19;10.20;;;4.60;;
56173;SDS011;42058;52.308;20.924;2023-12-28T13:19:45;10.60;;;4.60;;
56173;SDS011;42058;52.308;20.924;2023-12-28T13:22:11;10.20;;;4.60;;
56173;SDS011;42058;52.308;20.924;2023-12-28T13:24:38;11.20;;;5.40;;
56173;SDS011;42058;52.308;20.924;2023-12-28T13:27:04;9.90;;;4.90;;
56173;SDS011;42058;52.308;20.924;2023-12-28T13:29:30;11.60;;;5.10;;
56173;SDS011;42058;52.308;20.924;2023-12-28T13:31:57;11.10;;;5.40;;
56173;SDS011;42058;52.308;20.924;2023-12-28T13:34:24;11.40;;;5.40;;
56173;SDS011;42058;52.308;20.924;2023-12-28T13:36:50;10.90;;;5.50;;
56173;SDS011;42058;52.308;20.924;2023-12-28T13:39:17;11.10;;;5.30;;
56173;SDS011;42058;52.308;20.924;2023-12-28T13:41:43;11.20;;;5.50;;
56173;SDS011;42058;52.308;20.924;2023-12-28T13:44:09;12.10;;;5.60;;
56173;SDS011;42058;52.308;20.924;2023-12-28T13:46:38;10.00;;;4.80;;
56173;SDS011;42058;52.308;20.924;2023-12-28T13:49:05;9.30;;;5.10;;
56173;SDS011;42058;52.308;20.924;2023-12-28T13:51:33;10.70;;;5.40;;
56173;SDS011;42058;52.308;20.924;2023-12-28T13:54:01;12.00;;;5.40;;
56173;SDS011;42058;52.308;20.924;2023-12-28T13:56:29;13.70;;;5.90;;
56173;SDS011;42058;52.308;20.924;2023-12-28T13:58:56;12.40;;;5.70;;
56173;SDS011;42058;52.308;20.924;2023-12-28T14:01:22;11.40;;;6.00;;
56173;SDS011;42058;52.308;20.924;2023-12-28T14:03:48;12.60;;;5.80;;
56173;SDS011;42058;52.308;20.924;2023-12-28T14:06:17;13.10;;;5.80;;
56173;SDS011;42058;52.308;20.924;2023-12-28T14:08:45;13.70;;;6.30;;
56173;SDS011;42058;52.308;20.924;2023-12-28T14:11:11;19.40;;;6.30;;
56173;SDS011;42058;52.308;20.924;2023-12-28T14:13:38;12.50;;;6.10;;
56173;SDS011;42058;52.308;20.924;2023-12-28T14:16:04;12.00;;;6.00;;
56173;SDS011;42058;52.308;20.924;2023-12-28T14:18:31;13.80;;;6.20;;
56173;SDS011;42058;52.308;20.924;2023-12-28T14:20:57;14.50;;;6.00;;
56173;SDS011;42058;52.308;20.924;2023-12-28T14:23:24;11.00;;;5.40;;
56173;SDS011;42058;52.308;20.924;2023-12-28T14:25:50;10.70;;;5.50;;
56173;SDS011;42058;52.308;20.924;2023-12-28T14:28:22;11.90;;;6.10;;
56173;SDS011;42058;52.308;20.924;2023-12-28T14:30:52;13.30;;;5.50;;
56173;SDS011;42058;52.308;20.924;2023-12-28T14:33:19;11.70;;;6.00;;